createdAt,value
2018-10-18T00:01:33.503Z,15.93
2018-10-18T00:03:58.951Z,16.10
2018-10-18T00:09:01.341Z,16.03
2018-10-18T00:14:03.510Z,16.00
2018-10-18T00:16:28.948Z,15.96
2018-10-18T00:18:54.656Z,16.07
2018-10-18T00:21:20.113Z,16.30
2018-10-18T00:23:56.882Z,16.02
2018-10-18T00:26:41.270Z,15.73
2018-10-18T00:29:06.864Z,16.00
2018-10-18T00:34:03.554Z,15.70
2018-10-18T00:36:29.004Z,15.92
2018-10-18T00:38:54.401Z,15.90
2018-10-18T00:41:19.860Z,15.83
2018-10-18T00:43:45.273Z,15.93
2018-10-18T00:46:10.694Z,15.88
2018-10-18T00:48:36.115Z,15.79
2018-10-18T00:51:01.570Z,15.46
2018-10-18T00:53:27.039Z,15.64
2018-10-18T00:55:52.506Z,15.87
2018-10-18T00:58:36.894Z,15.68
2018-10-18T01:01:02.390Z,15.68
2018-10-18T01:03:27.883Z,15.90
2018-10-18T01:05:53.331Z,15.71
2018-10-18T01:08:18.766Z,15.74
2018-10-18T01:10:44.180Z,15.61
2018-10-18T01:13:09.647Z,15.72
2018-10-18T01:15:35.082Z,15.63
2018-10-18T01:18:00.603Z,15.75
2018-10-18T01:20:25.987Z,15.63
2018-10-18T01:25:34.764Z,15.73
2018-10-18T01:28:00.152Z,15.77
2018-10-18T01:33:15.848Z,15.80
2018-10-18T01:35:32.764Z,15.73
2018-10-18T01:37:58.321Z,15.77
2018-10-18T01:40:23.900Z,15.79
2018-10-18T01:42:49.296Z,15.79
2018-10-18T01:53:14.580Z,15.71
2018-10-18T01:55:31.665Z,15.75
2018-10-18T01:57:57.089Z,15.66
2018-10-18T02:00:22.493Z,15.83
2018-10-18T02:02:47.904Z,15.80
2018-10-18T02:05:27.033Z,15.85
2018-10-18T02:10:22.129Z,15.48
2018-10-18T02:12:47.536Z,15.65
2018-10-18T02:15:27.031Z,15.32
2018-10-18T02:17:44.689Z,15.54
2018-10-18T02:20:10.861Z,15.73
2018-10-18T02:22:36.285Z,15.02
2018-10-18T02:27:32.657Z,15.32
2018-10-18T02:29:58.093Z,15.77
2018-10-18T02:32:23.474Z,15.70
2018-10-18T02:34:48.881Z,15.74
2018-10-18T02:37:14.287Z,15.67
2018-10-18T02:42:16.484Z,14.78
2018-10-18T02:45:00.798Z,15.21
2018-10-18T02:47:26.316Z,15.42
2018-10-18T02:49:51.782Z,15.36
2018-10-18T02:52:29.055Z,14.63
2018-10-18T02:57:25.959Z,14.89
2018-10-18T03:02:27.302Z,14.41
2018-10-18T03:04:52.823Z,15.07
2018-10-18T03:07:18.523Z,15.22
2018-10-18T03:09:43.923Z,15.53
2018-10-18T03:12:09.364Z,15.58
2018-10-18T03:14:34.800Z,14.90
2018-10-18T03:17:11.813Z,14.63
2018-10-18T03:22:07.171Z,15.21
2018-10-18T03:24:44.149Z,15.77
2018-10-18T03:27:03.957Z,15.42
2018-10-18T03:29:29.437Z,15.46
2018-10-18T03:31:54.867Z,15.58
2018-10-18T03:34:31.700Z,15.38
2018-10-18T03:36:57.103Z,15.36
2018-10-18T03:39:22.565Z,14.94
2018-10-18T03:42:07.025Z,15.67
2018-10-18T03:44:32.457Z,14.84
2018-10-18T03:49:35.558Z,15.52
2018-10-18T03:52:01.030Z,15.57
2018-10-18T03:54:26.517Z,15.85
2018-10-18T03:56:51.944Z,15.76
2018-10-18T03:59:17.383Z,15.81
2018-10-18T04:01:42.892Z,15.76
2018-10-18T04:04:08.352Z,16.04
2018-10-18T04:06:33.783Z,15.96
2018-10-18T04:08:59.254Z,15.70
2018-10-18T04:11:36.346Z,15.78
2018-10-18T04:14:02.107Z,15.32
2018-10-18T04:16:27.524Z,15.62
2018-10-18T04:18:53.006Z,15.39
2018-10-18T04:21:18.427Z,15.42
2018-10-18T04:23:43.826Z,15.35
2018-10-18T04:26:09.244Z,14.89
2018-10-18T04:28:35.158Z,15.79
2018-10-18T04:33:38.658Z,15.71
2018-10-18T04:41:28.304Z,15.37
2018-10-18T04:44:08.094Z,15.61
2018-10-18T04:46:25.835Z,15.76
2018-10-18T04:48:51.335Z,15.18
2018-10-18T04:51:16.772Z,14.83
2018-10-18T04:58:55.319Z,15.87
2018-10-18T05:01:20.970Z,15.27
2018-10-18T05:03:46.167Z,15.83
2018-10-18T05:06:11.610Z,16.12
2018-10-18T05:08:37.046Z,16.00
2018-10-18T05:11:02.462Z,15.26
2018-10-18T05:13:27.995Z,15.35
2018-10-18T05:15:53.420Z,15.75
2018-10-18T05:18:19.140Z,15.83
2018-10-18T05:20:44.594Z,15.71
2018-10-18T05:23:10.290Z,15.51
2018-10-18T05:25:35.835Z,15.76
2018-10-18T05:28:01.154Z,15.55
2018-10-18T05:30:26.586Z,15.23
2018-10-18T05:32:52.002Z,16.04
2018-10-18T05:35:17.453Z,16.07
2018-10-18T05:37:42.885Z,14.98
2018-10-18T05:40:08.275Z,15.32
2018-10-18T05:42:45.157Z,15.80
2018-10-18T05:45:17.575Z,16.31
2018-10-18T05:47:37.389Z,16.38
2018-10-18T05:50:02.814Z,16.34
2018-10-18T05:52:28.239Z,16.31
2018-10-18T05:54:53.712Z,16.49
2018-10-18T05:57:19.110Z,15.91
2018-10-18T05:59:44.575Z,16.05
2018-10-18T06:02:10.011Z,16.57
2018-10-18T06:04:35.415Z,16.71
2018-10-18T06:07:00.955Z,16.62
2018-10-18T06:09:45.393Z,16.28
2018-10-18T06:12:10.814Z,16.14
2018-10-18T06:14:36.209Z,16.75
2018-10-18T06:17:01.645Z,16.13
2018-10-18T06:19:27.115Z,16.15
2018-10-18T06:21:52.556Z,16.28
2018-10-18T06:24:17.956Z,16.58
2018-10-18T06:26:43.374Z,16.75
2018-10-18T06:29:08.791Z,15.78
2018-10-18T06:31:34.212Z,16.71
2018-10-18T06:33:59.633Z,16.48
2018-10-18T06:36:25.068Z,15.97
2018-10-18T06:39:02.118Z,16.73
2018-10-18T06:41:21.417Z,16.53
2018-10-18T06:43:47.550Z,16.46
2018-10-18T06:46:14.128Z,16.25
2018-10-18T06:48:39.528Z,16.32
2018-10-18T06:51:04.935Z,16.78
2018-10-18T06:53:30.409Z,16.89
2018-10-18T06:58:32.845Z,16.16
2018-10-18T07:00:58.247Z,16.13
2018-10-18T07:03:23.649Z,16.15
2018-10-18T07:08:20.554Z,16.66
2018-10-18T07:13:22.574Z,16.94
2018-10-18T07:18:24.605Z,16.97
2018-10-18T07:20:50.018Z,16.96
2018-10-18T07:23:15.439Z,17.07
2018-10-18T07:25:40.883Z,16.90
2018-10-18T07:28:06.345Z,16.73
2018-10-18T07:33:03.586Z,16.81
2018-10-18T07:35:29.009Z,16.85
2018-10-18T07:37:54.419Z,16.27
2018-10-18T07:40:19.823Z,15.85
2018-10-18T07:42:45.373Z,16.53
2018-10-18T07:45:11.566Z,16.63
2018-10-18T07:47:36.979Z,16.51
2018-10-18T07:50:02.400Z,17.13
2018-10-18T07:52:27.858Z,16.95
2018-10-18T07:54:53.292Z,16.42
2018-10-18T07:59:50.467Z,16.72
2018-10-18T08:02:15.874Z,16.98
2018-10-18T08:07:05.345Z,17.12
2018-10-18T08:09:30.690Z,17.40
2018-10-18T08:11:56.098Z,17.51
2018-10-18T08:14:21.534Z,17.01
2018-10-18T08:16:47.076Z,17.14
2018-10-18T08:19:24.068Z,17.14
2018-10-18T08:21:43.480Z,16.48
2018-10-18T08:26:45.059Z,17.23
2018-10-18T08:29:10.529Z,17.55
2018-10-18T08:31:36.070Z,16.60
2018-10-18T08:34:01.449Z,17.12
2018-10-18T08:36:26.875Z,17.55
2018-10-18T08:38:52.291Z,16.50
2018-10-18T08:41:17.839Z,16.86
2018-10-18T08:43:43.332Z,17.20
2018-10-18T08:46:08.722Z,16.91
2018-10-18T08:48:34.164Z,16.92
2018-10-18T08:53:48.131Z,17.38
2018-10-18T08:56:27.328Z,17.26
2018-10-18T08:58:45.334Z,17.44
2018-10-18T09:01:10.877Z,17.46
2018-10-18T09:06:27.334Z,17.36
2018-10-18T09:08:44.762Z,17.47
2018-10-18T09:11:10.181Z,17.40
2018-10-18T09:13:35.614Z,17.67
2018-10-18T09:16:01.156Z,17.27
2018-10-18T09:18:26.471Z,17.49
2018-10-18T09:23:29.002Z,17.85
2018-10-18T09:25:54.550Z,18.07
2018-10-18T09:28:20.145Z,18.31
2018-10-18T09:30:45.688Z,18.48
2018-10-18T09:33:24.909Z,18.57
2018-10-18T09:35:42.941Z,18.36
2018-10-18T09:38:08.753Z,18.53
2018-10-18T09:40:34.215Z,19.01
2018-10-18T09:45:36.560Z,18.74
2018-10-18T09:48:02.012Z,18.38
2018-10-18T09:50:27.450Z,18.34
2018-10-18T09:52:52.960Z,18.27
2018-10-18T09:55:30.164Z,18.38
2018-10-18T09:57:49.286Z,19.00
2018-10-18T10:00:33.482Z,19.59
2018-10-18T10:05:38.157Z,19.04
2018-10-18T10:08:03.608Z,19.46
2018-10-18T10:10:29.103Z,19.48
2018-10-18T10:12:54.589Z,19.31
2018-10-18T10:15:19.984Z,19.86
2018-10-18T10:20:17.110Z,18.89
2018-10-18T10:22:42.532Z,18.56
2018-10-18T10:25:08.020Z,18.80
2018-10-18T10:27:45.269Z,18.69
2018-10-18T10:30:16.077Z,19.07
2018-10-18T10:32:35.953Z,18.64
2018-10-18T10:35:01.430Z,18.86
2018-10-18T10:37:26.853Z,18.80
2018-10-18T10:39:52.320Z,19.06
2018-10-18T10:42:25.106Z,18.80
2018-10-18T10:44:50.691Z,18.42
2018-10-18T10:47:16.042Z,18.75
2018-10-18T10:49:53.150Z,18.73
2018-10-18T10:52:12.755Z,18.35
2018-10-18T10:54:59.766Z,18.43
2018-10-18T10:57:36.808Z,18.55
2018-10-18T10:59:56.691Z,18.42
2018-10-18T11:02:22.123Z,18.36
2018-10-18T11:04:47.575Z,17.83
2018-10-18T11:07:32.038Z,17.79
2018-10-18T11:09:57.502Z,17.77
2018-10-18T11:12:23.032Z,18.15
2018-10-18T11:15:00.313Z,18.44
2018-10-18T11:17:19.490Z,18.16
2018-10-18T11:19:44.917Z,18.08
2018-10-18T11:24:42.323Z,18.53
2018-10-18T11:27:07.941Z,18.49
2018-10-18T11:29:33.219Z,17.95
2018-10-18T11:32:10.664Z,18.44
2018-10-18T11:34:36.038Z,18.94
2018-10-18T11:37:01.424Z,18.32
2018-10-18T11:39:26.921Z,18.69
2018-10-18T11:41:52.363Z,18.19
2018-10-18T11:44:48.230Z,18.34
2018-10-18T11:49:50.738Z,18.64
2018-10-18T11:52:16.172Z,18.25
2018-10-18T11:54:41.648Z,18.33
2018-10-18T11:57:07.222Z,18.74
2018-10-18T11:59:32.743Z,19.50
2018-10-18T12:01:58.238Z,19.69
2018-10-18T12:04:23.626Z,19.49
2018-10-18T12:06:49.070Z,19.40
2018-10-18T12:09:14.577Z,19.68
2018-10-18T12:11:40.130Z,19.85
2018-10-18T12:14:05.887Z,19.45
2018-10-18T12:16:31.265Z,19.45
2018-10-18T12:18:56.742Z,19.72
2018-10-18T12:21:22.184Z,19.92
2018-10-18T12:29:00.796Z,19.42
2018-10-18T12:31:26.184Z,19.31
2018-10-18T12:33:51.624Z,19.58
2018-10-18T12:36:31.369Z,18.66
2018-10-18T12:38:49.581Z,18.71
2018-10-18T12:41:15.180Z,18.47
2018-10-18T12:43:40.446Z,19.28
2018-10-18T12:46:06.157Z,18.53
2018-10-18T12:51:08.455Z,18.87
2018-10-18T12:54:07.642Z,18.98
2018-10-18T13:01:38.445Z,18.68
2018-10-18T13:06:41.437Z,19.12
2018-10-18T13:09:10.207Z,19.50
2018-10-18T13:16:43.054Z,20.42
2018-10-18T13:19:08.843Z,20.48
2018-10-18T13:21:40.364Z,19.85
2018-10-18T13:24:05.918Z,19.69
2018-10-18T13:26:31.299Z,19.64
2018-10-18T13:28:56.713Z,21.53
2018-10-18T13:31:22.165Z,27.22
2018-10-18T13:33:47.676Z,24.79
2018-10-18T13:36:13.128Z,23.21
2018-10-18T13:38:38.521Z,22.06
2018-10-18T13:41:03.943Z,22.17
2018-10-18T13:43:29.395Z,22.33
2018-10-18T13:45:54.825Z,22.91
2018-10-18T13:48:20.281Z,22.69
2018-10-18T13:50:45.744Z,27.56
2018-10-18T13:53:30.168Z,31.05
2018-10-18T13:56:07.358Z,29.09
2018-10-18T14:01:09.290Z,28.59
2018-10-18T14:03:46.741Z,26.90
2018-10-18T14:06:12.232Z,27.99
2018-10-18T14:11:18.236Z,32.45
2018-10-18T14:16:20.329Z,32.82
2018-10-18T14:21:23.394Z,32.44
2018-10-18T14:23:48.849Z,34.82
2018-10-18T14:26:14.366Z,34.52
2018-10-18T14:31:16.656Z,34.55
2018-10-18T14:33:42.105Z,33.62
2018-10-18T14:36:08.343Z,32.19
2018-10-18T14:38:33.788Z,31.89
2018-10-18T14:40:59.275Z,31.30
2018-10-18T14:43:24.705Z,26.71
2018-10-18T14:46:09.134Z,25.90
2018-10-18T14:51:05.935Z,23.38
2018-10-18T14:53:43.418Z,23.08
2018-10-18T14:56:22.436Z,23.08
2018-10-18T14:58:40.595Z,23.48
2018-10-18T15:01:06.175Z,23.36
2018-10-18T15:06:08.686Z,23.15
2018-10-18T15:08:34.280Z,21.71
2018-10-18T15:10:59.656Z,21.63
2018-10-18T15:13:25.087Z,20.75
2018-10-18T15:15:50.564Z,21.40
2018-10-18T15:18:16.022Z,21.10
2018-10-18T15:20:41.547Z,20.43
2018-10-18T15:23:07.035Z,20.97
2018-10-18T15:25:32.651Z,21.01
2018-10-18T15:27:58.013Z,21.47
2018-10-18T15:30:23.543Z,21.44
2018-10-18T15:32:49.051Z,20.53
2018-10-18T15:35:14.532Z,20.90
2018-10-18T15:37:40.174Z,20.64
2018-10-18T15:40:05.876Z,20.21
2018-10-18T15:45:13.785Z,20.71
2018-10-18T15:47:50.978Z,20.44
2018-10-18T15:50:11.646Z,19.42
2018-10-18T15:52:49.076Z,20.17
2018-10-18T15:55:08.517Z,19.28
2018-10-18T15:57:34.021Z,19.50
2018-10-18T15:59:59.487Z,18.96
2018-10-18T16:02:24.943Z,19.78
2018-10-18T16:05:01.902Z,19.62
2018-10-18T16:09:54.132Z,19.36
2018-10-18T16:12:19.612Z,19.71
2018-10-18T16:14:45.163Z,19.76
2018-10-18T16:19:42.574Z,19.60
2018-10-18T16:22:08.037Z,19.67
2018-10-18T16:24:33.847Z,19.44
2018-10-18T16:27:05.143Z,19.27
2018-10-18T16:29:30.579Z,19.52
2018-10-18T16:31:56.404Z,19.30
2018-10-18T16:34:21.822Z,19.31
2018-10-18T16:36:47.272Z,19.46
2018-10-18T16:39:14.074Z,19.23
2018-10-18T16:41:39.828Z,19.08
2018-10-18T16:44:05.236Z,19.27
2018-10-18T16:46:42.269Z,19.09
2018-10-18T16:49:07.995Z,19.18
2018-10-18T16:51:33.462Z,19.32
2018-10-18T16:53:58.927Z,19.33
2018-10-18T16:56:24.325Z,19.29
2018-10-18T16:58:49.775Z,18.49
2018-10-18T17:01:15.253Z,18.52
2018-10-18T17:06:31.468Z,18.44
2018-10-18T17:08:48.857Z,19.00
2018-10-18T17:11:25.884Z,18.39
2018-10-18T17:13:45.626Z,18.89
2018-10-18T17:16:22.607Z,18.97
2018-10-18T17:21:14.226Z,18.43
2018-10-18T17:23:39.725Z,18.02
2018-10-18T17:26:05.115Z,18.36
2018-10-18T17:28:30.546Z,18.10
2018-10-18T17:30:56.021Z,18.51
2018-10-18T17:33:21.600Z,18.18
2018-10-18T17:35:47.043Z,18.48
2018-10-18T17:38:12.535Z,17.97
2018-10-18T17:40:38.031Z,18.38
2018-10-18T17:43:03.509Z,17.91
2018-10-18T17:45:28.960Z,17.57
2018-10-18T17:47:54.459Z,18.26
2018-10-18T17:50:20.654Z,17.81
2018-10-18T17:52:46.118Z,17.95
2018-10-18T17:55:11.565Z,17.57
2018-10-18T17:57:37.329Z,17.77
2018-10-18T18:02:50.954Z,17.54
2018-10-18T18:07:48.012Z,18.44
2018-10-18T18:10:32.274Z,18.28
2018-10-18T18:12:57.794Z,17.91
2018-10-18T18:15:23.313Z,17.92
2018-10-18T18:20:38.691Z,18.28
2018-10-18T18:22:56.555Z,18.06
2018-10-18T18:25:22.029Z,18.13
2018-10-18T18:27:58.952Z,18.27
2018-10-18T18:30:24.429Z,18.07
2018-10-18T18:32:49.874Z,17.85
2018-10-18T18:35:15.324Z,17.96
2018-10-18T18:37:40.830Z,17.94
2018-10-18T18:40:06.957Z,17.73
2018-10-18T18:42:44.113Z,17.79
2018-10-18T18:45:22.943Z,17.96
2018-10-18T18:47:48.296Z,17.33
2018-10-18T18:50:13.819Z,17.93
2018-10-18T18:52:39.275Z,17.99
2018-10-18T18:55:04.736Z,17.95
2018-10-18T18:57:30.182Z,17.71
2018-10-18T19:00:07.546Z,17.03
2018-10-18T19:02:27.462Z,17.49
2018-10-18T19:07:30.366Z,17.47
2018-10-18T19:09:55.847Z,16.78
2018-10-18T19:12:21.349Z,17.49
2018-10-18T19:14:46.749Z,17.32
2018-10-18T19:17:12.212Z,17.55
2018-10-18T19:19:38.533Z,17.29
2018-10-18T19:22:04.017Z,17.49
2018-10-18T19:24:29.488Z,17.47
2018-10-18T19:27:06.755Z,17.28
2018-10-18T19:31:58.492Z,17.27
2018-10-18T19:34:23.796Z,17.29
2018-10-18T19:36:49.234Z,17.22
2018-10-18T19:39:14.717Z,17.21
2018-10-18T19:41:40.174Z,17.25
2018-10-18T19:44:05.720Z,17.06
2018-10-18T19:46:31.165Z,16.96
2018-10-18T19:48:56.624Z,16.82
2018-10-18T19:51:22.036Z,16.82
2018-10-18T19:53:47.497Z,16.97
2018-10-18T19:56:26.755Z,16.84
2018-10-18T19:58:44.554Z,16.83
2018-10-18T20:01:09.918Z,16.75
2018-10-18T20:03:35.443Z,16.70
2018-10-18T20:06:00.852Z,16.63
2018-10-18T20:08:26.354Z,16.43
2018-10-18T20:10:54.186Z,16.40
2018-10-18T20:13:19.642Z,16.40
2018-10-18T20:15:45.069Z,16.27
2018-10-18T20:18:24.136Z,16.28
2018-10-18T20:20:53.111Z,16.21
2018-10-18T20:23:18.592Z,16.07
2018-10-18T20:28:19.956Z,16.03
2018-10-18T20:30:45.368Z,15.88
2018-10-18T20:33:10.821Z,15.89
2018-10-18T20:35:36.287Z,15.53
2018-10-18T20:40:38.651Z,15.63
2018-10-18T20:43:04.075Z,15.32
2018-10-18T20:45:48.284Z,15.30
2018-10-18T20:51:04.628Z,15.22
2018-10-18T20:53:22.497Z,15.05
2018-10-18T20:55:47.926Z,14.91
2018-10-18T20:58:13.355Z,15.09
2018-10-18T21:00:38.764Z,15.20
2018-10-18T21:03:04.241Z,14.96
2018-10-18T21:05:41.129Z,14.80
2018-10-18T21:08:00.975Z,14.86
2018-10-18T21:10:26.399Z,14.62
2018-10-18T21:12:51.835Z,14.73
2018-10-18T21:15:17.351Z,14.56
2018-10-18T21:17:42.654Z,14.11
2018-10-18T21:20:08.218Z,14.24
2018-10-18T21:22:48.166Z,14.29
2018-10-18T21:25:18.487Z,14.17
2018-10-18T21:27:36.461Z,14.14
2018-10-18T21:30:01.842Z,14.13
2018-10-18T21:32:27.275Z,14.14
2018-10-18T21:34:52.686Z,13.91
2018-10-18T21:37:18.147Z,14.15
2018-10-18T21:39:43.579Z,14.06
2018-10-18T21:42:08.989Z,13.83
2018-10-18T21:44:38.047Z,13.85
2018-10-18T21:47:03.564Z,13.97
2018-10-18T21:49:29.797Z,13.99
2018-10-18T21:51:55.211Z,13.79
2018-10-18T21:54:32.108Z,13.77
2018-10-18T21:56:51.965Z,13.80
2018-10-18T21:59:17.409Z,13.70
2018-10-18T22:01:42.859Z,13.67
2018-10-18T22:06:46.354Z,13.58
2018-10-18T22:09:30.735Z,13.50
2018-10-18T22:11:56.208Z,13.43
2018-10-18T22:14:21.803Z,13.45
2018-10-18T22:16:47.175Z,13.31
2018-10-18T22:19:12.611Z,13.38
2018-10-18T22:21:39.026Z,13.13
2018-10-18T22:26:35.951Z,13.04
2018-10-18T22:31:44.274Z,12.93
2018-10-18T22:34:04.417Z,13.09
2018-10-18T22:36:29.873Z,13.14
2018-10-18T22:38:55.789Z,13.08
2018-10-18T22:41:21.164Z,13.03
2018-10-18T22:43:46.610Z,13.06
2018-10-18T22:46:12.008Z,13.26
2018-10-18T22:48:52.196Z,13.23
2018-10-18T22:51:09.007Z,13.10
2018-10-18T22:53:34.367Z,13.29
2018-10-18T22:55:59.824Z,13.15
2018-10-18T22:58:25.307Z,12.95
2018-10-18T23:00:51.387Z,12.79
2018-10-18T23:03:17.631Z,12.76
2018-10-18T23:05:43.040Z,12.98
2018-10-18T23:08:08.504Z,12.83
2018-10-18T23:10:33.933Z,12.95
2018-10-18T23:13:13.284Z,12.85
2018-10-18T23:15:30.622Z,12.91
2018-10-18T23:17:56.066Z,12.87
2018-10-18T23:20:21.469Z,12.59
2018-10-18T23:22:46.920Z,12.58
2018-10-18T23:25:12.451Z,12.58
2018-10-18T23:27:37.838Z,12.53
2018-10-18T23:30:03.288Z,12.63
2018-10-18T23:35:05.718Z,12.54
2018-10-18T23:40:07.425Z,12.21
2018-10-18T23:42:44.582Z,12.31
2018-10-18T23:45:04.943Z,12.27
2018-10-18T23:52:45.034Z,12.07
2018-10-18T23:57:52.840Z,12.25
